Details for Norwegian Air International at LEBL




Go Back


Latest METAR
Local Time

LEBL 211430Z 15009KT 9999 FEW025 13/06 Q1006 WS ALL RWY NOSIG

21/02/2018, 16:01:30

Description
Results
Norwegian Air International Logo
Number of Pilots based at LEBL
0 Pilots Based here
Number of Norwegian Air International Flights Departed from LEBL
2 Flights Departed
Number of Norwegian Air International Flights Arrived at LEBL
0 Flights Arrived
Number of Norwegian Air International Schedules Departing from LEBL
56 Schedules
Number of Norwegian Air International Schedules Arriving at LEBL
54 Schedules
Number of Norwegian Air International Schedules Departing from LEBL availible today
27 Schedules Today
Number of Norwegian Air International Schedules Arriving at LEBL availible today
20 Schedules Today
Average Landing Rate at LEBL
-198 fpm
Norwegian Air International Average Landing Rate at LEBL
0 fpm
Total Fuel Purchased at LEBL by Norwegian Air International
5,625.45 kgs / 12,401.87 lbs

Pilots Based at LEBL


Pilot ID
Pilot Name
Pilot Rank
No. of Flights
No. of Flying Hours
There are no pilots assigned to this hub!   Will you be the first?
Content